createdAt,value
2022-11-28T00:01:21.032Z,31.80
2022-11-28T00:03:48.459Z,31.10
2022-11-28T00:06:16.174Z,31.20
2022-11-28T00:08:43.781Z,30.70
2022-11-28T00:11:12.408Z,30.10
2022-11-28T00:13:40.162Z,30.30
2022-11-28T00:16:08.771Z,30.10
2022-11-28T00:18:36.432Z,29.60
2022-11-28T00:21:09.033Z,29.70
2022-11-28T00:23:36.608Z,29.90
2022-11-28T00:26:09.759Z,30.70
2022-11-28T00:28:36.839Z,30.80
2022-11-28T00:31:04.634Z,31.20
2022-11-28T00:33:35.402Z,31.10
2022-11-28T00:36:04.920Z,30.30
2022-11-28T00:38:32.305Z,30.00
2022-11-28T00:41:11.443Z,29.70
2022-11-28T00:43:38.504Z,29.20
2022-11-28T00:46:06.208Z,29.30
2022-11-28T00:48:34.246Z,30.10
2022-11-28T00:51:16.421Z,30.30
2022-11-28T00:53:44.892Z,29.40
2022-11-28T00:56:13.518Z,29.10
2022-11-28T00:58:41.501Z,28.50
2022-11-28T01:01:15.115Z,28.60
2022-11-28T01:03:42.371Z,29.00
2022-11-28T01:06:11.051Z,28.20
2022-11-28T01:08:38.562Z,28.00
2022-11-28T01:11:12.675Z,28.80
2022-11-28T01:13:40.455Z,28.90
2022-11-28T01:16:08.025Z,28.00
2022-11-28T01:18:35.678Z,28.20
2022-11-28T01:21:02.742Z,28.60
2022-11-28T01:23:29.743Z,29.00
2022-11-28T01:25:56.679Z,29.60
2022-11-28T01:28:23.544Z,29.20
2022-11-28T01:30:50.582Z,29.20
2022-11-28T01:33:17.487Z,28.90
2022-11-28T01:35:54.572Z,29.80
2022-11-28T01:38:21.838Z,29.90
2022-11-28T01:40:48.782Z,30.00
2022-11-28T01:43:15.824Z,29.70
2022-11-28T01:45:42.727Z,29.90
2022-11-28T01:48:14.257Z,28.80
2022-11-28T01:50:43.788Z,27.60
2022-11-28T01:53:11.409Z,27.50
2022-11-28T01:55:44.497Z,27.90
2022-11-28T01:58:12.392Z,28.20
2022-11-28T02:00:39.396Z,28.50
2022-11-28T02:03:15.004Z,29.40
2022-11-28T02:05:42.018Z,29.60
2022-11-28T02:08:10.039Z,30.00
2022-11-28T02:11:01.512Z,29.80
2022-11-28T02:13:36.127Z,30.10
2022-11-28T02:16:34.135Z,29.00
2022-11-28T02:19:34.513Z,28.60
2022-11-28T02:22:30.718Z,28.70
2022-11-28T02:25:58.722Z,28.40
2022-11-28T02:28:45.730Z,28.40
2022-11-28T02:31:35.723Z,28.80
2022-11-28T02:34:47.214Z,29.50
2022-11-28T02:37:38.980Z,30.00
2022-11-28T02:40:17.605Z,29.50
2022-11-28T02:42:44.491Z,29.70
2022-11-28T02:45:18.023Z,29.70
2022-11-28T02:47:52.183Z,29.40
2022-11-28T02:50:26.479Z,29.50
2022-11-28T02:53:16.721Z,29.40
2022-11-28T02:55:44.650Z,29.60
2022-11-28T02:58:12.978Z,29.10
2022-11-28T03:00:43.875Z,29.10
2022-11-28T03:03:27.237Z,29.20
2022-11-28T03:06:08.885Z,28.30
2022-11-28T03:08:54.611Z,27.60
2022-11-28T03:11:42.812Z,28.60
2022-11-28T03:14:33.526Z,28.30
2022-11-28T03:17:17.084Z,28.10
2022-11-28T03:20:09.327Z,29.00
2022-11-28T03:22:39.353Z,29.00
2022-11-28T03:25:41.821Z,29.00
2022-11-28T03:28:29.706Z,29.30
2022-11-28T03:31:07.892Z,29.40
2022-11-28T03:33:41.987Z,28.50
2022-11-28T03:36:27.815Z,28.40
2022-11-28T03:39:02.362Z,28.70
2022-11-28T03:41:41.080Z,28.40
2022-11-28T03:44:14.550Z,28.30
2022-11-28T03:46:46.762Z,28.00
2022-11-28T03:49:17.921Z,28.30
2022-11-28T03:51:56.799Z,28.50
2022-11-28T03:54:33.151Z,28.40
2022-11-28T03:57:14.945Z,28.00
2022-11-28T03:59:46.818Z,28.50
2022-11-28T04:02:47.567Z,27.90
2022-11-28T04:05:41.844Z,28.10
2022-11-28T04:08:19.198Z,28.20
2022-11-28T04:10:55.764Z,27.80
2022-11-28T04:13:33.079Z,28.10
2022-11-28T04:16:09.465Z,28.20
2022-11-28T04:18:48.830Z,28.40
2022-11-28T04:21:20.507Z,28.40
2022-11-28T04:23:49.953Z,28.40
2022-11-28T04:26:34.486Z,27.70
2022-11-28T04:29:06.410Z,27.60
2022-11-28T04:31:35.648Z,27.70
2022-11-28T04:34:07.956Z,27.10
2022-11-28T04:36:38.352Z,27.20
2022-11-28T04:39:10.363Z,27.50
2022-11-28T04:41:56.567Z,27.90
2022-11-28T04:44:33.544Z,27.60
2022-11-28T04:47:00.498Z,27.60
2022-11-28T04:49:29.367Z,27.00
2022-11-28T04:52:07.436Z,26.70
2022-11-28T04:54:45.681Z,27.00
2022-11-28T04:57:18.122Z,26.90
2022-11-28T04:59:46.493Z,27.50
2022-11-28T05:02:15.011Z,26.70
2022-11-28T05:04:44.477Z,26.80
2022-11-28T05:07:11.880Z,27.20
2022-11-28T05:09:39.320Z,26.90
2022-11-28T05:12:06.503Z,27.50
2022-11-28T05:14:33.444Z,27.80
2022-11-28T05:17:00.332Z,28.10
2022-11-28T05:19:27.263Z,27.70
2022-11-28T05:21:54.270Z,27.80
2022-11-28T05:24:22.452Z,27.90
2022-11-28T05:26:49.669Z,27.40
2022-11-28T05:29:16.858Z,26.90
2022-11-28T05:31:43.966Z,26.80
2022-11-28T05:34:10.882Z,26.60
2022-11-28T05:36:37.741Z,26.90
2022-11-28T05:39:04.764Z,27.30
2022-11-28T05:41:32.406Z,27.00
2022-11-28T05:44:00.402Z,27.10
2022-11-28T05:46:28.270Z,27.30
2022-11-28T05:48:55.226Z,27.40
2022-11-28T05:51:22.072Z,26.70
2022-11-28T05:53:49.178Z,27.10
2022-11-28T05:56:19.354Z,27.60
2022-11-28T05:58:46.677Z,26.50
2022-11-28T06:01:16.426Z,26.90
2022-11-28T06:03:43.788Z,27.10
2022-11-28T06:06:16.472Z,27.50
2022-11-28T06:08:44.271Z,27.50
2022-11-28T06:11:12.157Z,26.40
2022-11-28T06:13:39.065Z,26.40
2022-11-28T06:16:20.293Z,26.70
2022-11-28T06:18:47.609Z,26.90
2022-11-28T06:21:16.046Z,26.80
2022-11-28T06:23:43.309Z,27.40
2022-11-28T06:26:15.685Z,27.30
2022-11-28T06:28:42.903Z,27.10
2022-11-28T06:31:15.057Z,26.90
2022-11-28T06:33:43.380Z,26.40
2022-11-28T06:36:11.468Z,26.80
2022-11-28T06:38:38.774Z,27.10
2022-11-28T06:41:12.689Z,27.40
2022-11-28T06:43:40.275Z,28.00
2022-11-28T06:46:15.940Z,27.10
2022-11-28T06:48:43.728Z,26.50
2022-11-28T06:51:11.524Z,27.10
2022-11-28T06:53:38.457Z,27.60
2022-11-28T06:56:11.649Z,27.50
2022-11-28T06:58:38.754Z,28.10
2022-11-28T07:01:13.486Z,28.40
2022-11-28T07:03:40.964Z,28.10
2022-11-28T07:06:08.798Z,28.20
2022-11-28T07:08:36.749Z,28.80
2022-11-28T07:11:16.822Z,29.40
2022-11-28T07:13:46.007Z,28.10
2022-11-28T07:16:16.929Z,27.70
2022-11-28T07:18:44.782Z,27.40
2022-11-28T07:21:11.877Z,27.70
2022-11-28T07:23:38.775Z,27.70
2022-11-28T07:26:06.137Z,27.70
2022-11-28T07:28:34.073Z,27.40
2022-11-28T07:31:13.717Z,27.30
2022-11-28T07:33:42.186Z,27.80
2022-11-28T07:36:22.652Z,27.20
2022-11-28T07:38:52.105Z,27.60
2022-11-28T07:41:24.970Z,27.20
2022-11-28T07:43:56.401Z,27.50
2022-11-28T07:46:24.410Z,27.70
2022-11-28T07:48:51.421Z,28.40
2022-11-28T07:51:27.443Z,28.90
2022-11-28T07:53:55.004Z,29.00
2022-11-28T07:56:35.064Z,29.20
2022-11-28T07:59:07.425Z,30.00
2022-11-28T08:01:36.201Z,30.00
2022-11-28T08:04:05.781Z,30.80
2022-11-28T08:06:37.113Z,30.90
2022-11-28T08:09:04.809Z,30.50
2022-11-28T08:11:32.765Z,30.90
2022-11-28T08:14:00.282Z,31.70
2022-11-28T08:16:29.454Z,32.50
2022-11-28T08:18:56.937Z,32.10
2022-11-28T08:21:29.506Z,32.10
2022-11-28T08:23:59.223Z,32.10
2022-11-28T08:26:30.650Z,32.30
2022-11-28T08:28:58.722Z,31.70
2022-11-28T08:31:31.330Z,31.80
2022-11-28T08:34:01.010Z,32.00
2022-11-28T08:36:29.301Z,32.20
2022-11-28T08:39:16.729Z,32.50
2022-11-28T08:41:43.966Z,32.30
2022-11-28T08:44:10.946Z,32.60
2022-11-28T08:46:37.840Z,32.10
2022-11-28T08:49:04.980Z,32.10
2022-11-28T08:51:32.337Z,31.80
2022-11-28T08:54:00.246Z,31.60
2022-11-28T08:56:27.977Z,31.50
2022-11-28T08:58:55.845Z,30.90
2022-11-28T09:01:25.246Z,31.30
2022-11-28T09:03:53.244Z,32.40
2022-11-28T09:06:21.928Z,32.30
2022-11-28T09:08:50.479Z,31.60
2022-11-28T09:11:19.809Z,31.50
2022-11-28T09:13:46.810Z,31.40
2022-11-28T09:16:14.639Z,30.80
2022-11-28T09:18:41.893Z,30.60
2022-11-28T09:21:12.004Z,29.60
2022-11-28T09:23:41.244Z,29.50
2022-11-28T09:26:26.899Z,29.00
2022-11-28T09:28:54.602Z,29.70
2022-11-28T09:31:22.190Z,30.50
2022-11-28T09:33:49.587Z,31.10
2022-11-28T09:36:19.785Z,30.50
2022-11-28T09:38:47.370Z,29.80
2022-11-28T09:41:36.687Z,29.60
2022-11-28T09:44:21.015Z,30.10
2022-11-28T09:46:49.975Z,30.30
2022-11-28T09:49:44.607Z,30.10
2022-11-28T09:52:29.378Z,29.60
2022-11-28T09:55:00.644Z,29.70
2022-11-28T09:57:53.981Z,29.30
2022-11-28T10:00:35.396Z,28.80
2022-11-28T10:03:13.918Z,28.90
2022-11-28T10:05:48.497Z,28.20
2022-11-28T10:08:27.399Z,28.30
2022-11-28T10:11:05.891Z,28.40
2022-11-28T10:14:08.165Z,29.60
2022-11-28T10:16:50.775Z,28.10
2022-11-28T10:19:53.417Z,27.60
2022-11-28T10:22:27.975Z,28.10
2022-11-28T10:24:57.987Z,27.50
2022-11-28T10:27:34.179Z,27.50
2022-11-28T10:30:14.814Z,28.80
2022-11-28T10:32:45.144Z,30.10
2022-11-28T10:35:14.746Z,28.50
2022-11-28T10:37:43.069Z,27.60
2022-11-28T10:40:35.296Z,27.80
2022-11-28T10:43:26.397Z,27.20
2022-11-28T10:46:14.991Z,27.00
2022-11-28T10:49:00.732Z,27.50
2022-11-28T10:52:04.134Z,27.80
2022-11-28T10:54:55.832Z,26.80
2022-11-28T10:57:38.648Z,27.50
2022-11-28T11:00:15.544Z,27.30
2022-11-28T11:02:50.020Z,27.00
2022-11-28T11:05:29.961Z,27.60
2022-11-28T11:08:13.970Z,27.40
2022-11-28T11:11:04.918Z,28.10
2022-11-28T11:13:55.591Z,27.60
2022-11-28T11:16:22.625Z,28.10
2022-11-28T11:18:55.275Z,28.30
2022-11-28T11:21:28.159Z,28.50
2022-11-28T11:24:17.625Z,28.50
2022-11-28T11:26:48.616Z,28.50
2022-11-28T11:29:35.639Z,28.60
2022-11-28T11:32:06.297Z,29.20
2022-11-28T11:34:43.165Z,29.60
2022-11-28T11:37:35.879Z,29.40
2022-11-28T11:40:17.718Z,30.30
2022-11-28T11:42:56.393Z,29.90
2022-11-28T11:45:33.184Z,30.50
2022-11-28T11:48:01.544Z,30.30
2022-11-28T11:50:31.578Z,30.30
2022-11-28T11:53:13.758Z,29.70
2022-11-28T11:55:54.927Z,30.80
2022-11-28T11:58:41.893Z,30.90
2022-11-28T12:01:11.352Z,31.60
2022-11-28T12:03:59.037Z,31.50
2022-11-28T12:06:42.622Z,31.30
2022-11-28T12:09:23.263Z,31.80
2022-11-28T12:12:01.733Z,30.90
2022-11-28T12:14:30.367Z,29.70
2022-11-28T12:17:47.238Z,30.20
2022-11-28T12:20:52.937Z,29.50
2022-11-28T12:23:19.988Z,29.70
2022-11-28T12:26:10.423Z,31.50
2022-11-28T12:28:52.730Z,30.90
2022-11-28T12:31:37.527Z,30.50
2022-11-28T12:35:12.452Z,30.40
2022-11-28T12:38:12.667Z,31.50
2022-11-28T12:41:08.757Z,32.50
2022-11-28T12:43:53.718Z,32.40
2022-11-28T12:46:27.320Z,32.80
2022-11-28T12:49:01.749Z,33.60
2022-11-28T12:51:37.867Z,33.40
2022-11-28T12:54:16.769Z,33.60
2022-11-28T12:57:08.128Z,32.80
2022-11-28T12:59:47.659Z,33.40
2022-11-28T13:02:39.370Z,33.00
2022-11-28T13:05:12.609Z,31.30
2022-11-28T13:08:01.429Z,31.70
2022-11-28T13:10:52.272Z,32.00
2022-11-28T13:13:46.750Z,32.00
2022-11-28T13:16:27.451Z,31.50
2022-11-28T13:19:13.394Z,31.60
2022-11-28T13:21:58.682Z,30.80
2022-11-28T13:24:50.529Z,30.90
2022-11-28T13:27:40.486Z,30.20
2022-11-28T13:30:17.071Z,30.30
2022-11-28T13:32:58.998Z,30.40
2022-11-28T13:35:28.880Z,30.00
2022-11-28T13:40:52.769Z,29.80
2022-11-28T13:43:38.107Z,29.30
2022-11-28T13:46:08.426Z,27.90
2022-11-28T13:51:32.058Z,27.80
2022-11-28T13:54:18.095Z,27.60
2022-11-28T13:56:47.415Z,27.70
2022-11-28T13:59:21.560Z,27.30
2022-11-28T14:01:57.251Z,26.80
2022-11-28T14:04:25.157Z,27.30
2022-11-28T14:06:59.194Z,26.90
2022-11-28T14:10:02.164Z,27.00
2022-11-28T14:12:32.126Z,26.30
2022-11-28T14:15:08.649Z,26.80
2022-11-28T14:17:47.191Z,26.90
2022-11-28T14:20:37.568Z,27.60
2022-11-28T14:23:39.979Z,27.70
2022-11-28T14:26:40.770Z,28.10
2022-11-28T14:29:26.602Z,28.30
2022-11-28T14:32:27.945Z,27.80
2022-11-28T14:34:48.742Z,27.40
2022-11-28T14:37:21.652Z,27.90
2022-11-28T14:39:50.067Z,28.30
2022-11-28T14:45:32.925Z,28.20
2022-11-28T14:48:32.235Z,28.00
2022-11-28T14:51:02.181Z,27.70
2022-11-28T14:53:45.790Z,28.30
2022-11-28T14:56:15.526Z,28.40
2022-11-28T14:58:50.872Z,28.60
2022-11-28T15:01:47.612Z,28.90
2022-11-28T15:04:38.759Z,28.10
2022-11-28T15:07:24.937Z,27.70
2022-11-28T15:10:15.824Z,28.30
2022-11-28T15:13:08.601Z,29.00
2022-11-28T15:15:35.742Z,29.60
2022-11-28T15:18:04.995Z,29.90
2022-11-28T15:20:44.631Z,29.90
2022-11-28T15:23:35.349Z,29.70
2022-11-28T15:26:03.422Z,29.00
2022-11-28T15:28:34.002Z,29.10
2022-11-28T15:31:03.642Z,28.80
2022-11-28T15:33:31.785Z,28.30
2022-11-28T15:36:13.166Z,28.30
2022-11-28T15:38:43.059Z,28.40
2022-11-28T15:41:10.154Z,28.20
2022-11-28T15:43:42.152Z,28.50
2022-11-28T15:46:18.713Z,27.90
2022-11-28T15:48:51.307Z,28.00
2022-11-28T15:51:35.749Z,27.80
2022-11-28T15:54:13.356Z,28.10
2022-11-28T15:56:56.931Z,27.50
2022-11-28T15:59:23.843Z,27.40
2022-11-28T16:01:56.259Z,28.10
2022-11-28T16:04:26.485Z,28.00
2022-11-28T16:06:57.433Z,27.90
2022-11-28T16:09:35.099Z,28.10
2022-11-28T16:12:04.461Z,28.20
2022-11-28T16:14:37.491Z,28.40
2022-11-28T16:17:29.416Z,29.20
2022-11-28T16:19:57.597Z,29.80
2022-11-28T16:22:32.737Z,29.80
2022-11-28T16:25:31.085Z,29.50
2022-11-28T16:27:58.870Z,29.20
2022-11-28T16:30:32.821Z,29.10
2022-11-28T16:33:00.406Z,29.00
2022-11-28T16:35:39.055Z,28.80
2022-11-28T16:38:12.958Z,28.40
2022-11-28T16:40:40.114Z,28.10
2022-11-28T16:43:41.834Z,28.30
2022-11-28T16:46:30.005Z,27.80
2022-11-28T16:48:58.752Z,28.30
2022-11-28T16:51:34.965Z,28.40
2022-11-28T16:54:30.971Z,28.60
2022-11-28T16:57:11.847Z,28.60
2022-11-28T16:59:38.845Z,29.00
2022-11-28T17:02:16.808Z,29.20
2022-11-28T17:04:45.154Z,28.70
2022-11-28T17:07:14.705Z,28.50
2022-11-28T17:09:42.861Z,28.40
2022-11-28T17:12:26.589Z,28.20
2022-11-28T17:14:54.453Z,28.10
2022-11-28T17:17:25.911Z,28.20
2022-11-28T17:19:52.806Z,27.90
2022-11-28T17:22:25.998Z,28.40
2022-11-28T17:24:57.901Z,28.30
2022-11-28T17:27:24.810Z,28.60
2022-11-28T17:29:52.017Z,28.60
2022-11-28T17:32:19.140Z,28.40
2022-11-28T17:34:46.399Z,28.20
2022-11-28T17:37:13.674Z,28.00
2022-11-28T17:40:00.655Z,28.10
2022-11-28T17:42:27.513Z,28.30
2022-11-28T17:44:54.391Z,28.00
2022-11-28T17:47:21.758Z,28.30
2022-11-28T17:49:48.706Z,28.10
2022-11-28T17:52:16.081Z,27.60
2022-11-28T17:54:42.930Z,28.00
2022-11-28T17:57:10.096Z,28.10
2022-11-28T17:59:37.707Z,28.30
2022-11-28T18:02:07.047Z,28.70
2022-11-28T18:04:37.524Z,28.90
2022-11-28T18:07:04.485Z,28.80
2022-11-28T18:09:31.389Z,28.40
2022-11-28T18:11:58.281Z,27.70
2022-11-28T18:14:25.163Z,27.70
2022-11-28T18:16:52.064Z,27.90
2022-11-28T18:19:18.980Z,28.00
2022-11-28T18:21:45.927Z,27.70
2022-11-28T18:24:12.927Z,28.10
2022-11-28T18:26:39.827Z,27.90
2022-11-28T18:29:09.747Z,28.10
2022-11-28T18:31:36.727Z,27.80
2022-11-28T18:34:06.454Z,28.40
2022-11-28T18:36:34.834Z,28.00
2022-11-28T18:39:04.700Z,27.90
2022-11-28T18:41:32.044Z,28.60
2022-11-28T18:44:04.792Z,28.60
2022-11-28T18:46:32.869Z,28.70
2022-11-28T18:49:00.210Z,28.30
2022-11-28T18:51:34.928Z,28.30
2022-11-28T18:54:05.589Z,28.50
2022-11-28T18:56:32.758Z,28.60
2022-11-28T18:58:59.654Z,28.40
2022-11-28T19:01:30.460Z,28.80
2022-11-28T19:03:58.788Z,28.80
2022-11-28T19:06:26.502Z,29.00
2022-11-28T19:08:58.090Z,28.90
2022-11-28T19:11:25.150Z,29.10
2022-11-28T19:13:53.649Z,29.10
2022-11-28T19:16:31.870Z,29.40
2022-11-28T19:19:00.592Z,29.40
2022-11-28T19:21:31.044Z,29.60
2022-11-28T19:23:58.975Z,29.50
2022-11-28T19:26:28.486Z,29.50
2022-11-28T19:28:56.426Z,29.40
2022-11-28T19:31:29.179Z,28.90
2022-11-28T19:34:01.234Z,29.10
2022-11-28T19:36:31.380Z,28.80
2022-11-28T19:38:59.790Z,28.70
2022-11-28T19:41:27.893Z,28.40
2022-11-28T19:43:54.904Z,28.50
2022-11-28T19:46:21.803Z,28.40
2022-11-28T19:48:51.259Z,28.50
2022-11-28T19:51:18.869Z,28.70
2022-11-28T19:53:45.772Z,28.70
2022-11-28T19:56:21.086Z,28.60
2022-11-28T19:58:48.169Z,28.80
2022-11-28T20:01:17.601Z,29.20
2022-11-28T20:03:45.681Z,29.10
2022-11-28T20:06:15.488Z,29.30
2022-11-28T20:08:42.848Z,29.40
2022-11-28T20:11:21.544Z,29.20
2022-11-28T20:13:49.394Z,28.90
2022-11-28T20:16:18.064Z,28.90
2022-11-28T20:18:45.538Z,28.90
2022-11-28T20:21:14.851Z,29.30
2022-11-28T20:23:44.096Z,29.60
2022-11-28T20:26:12.319Z,29.60
2022-11-28T20:28:40.864Z,29.70
2022-11-28T20:31:16.899Z,29.70
2022-11-28T20:33:43.771Z,29.50
2022-11-28T20:36:15.629Z,29.80
2022-11-28T20:38:42.752Z,29.60
2022-11-28T20:41:11.800Z,29.00
2022-11-28T20:43:39.894Z,28.90
2022-11-28T20:46:09.832Z,29.00
2022-11-28T20:48:36.939Z,29.10
2022-11-28T20:51:07.190Z,29.30
2022-11-28T20:53:35.159Z,28.90
2022-11-28T20:56:07.560Z,28.70
2022-11-28T20:58:34.888Z,28.90
2022-11-28T21:01:02.003Z,29.10
2022-11-28T21:03:28.978Z,29.20
2022-11-28T21:06:00.853Z,29.30
2022-11-28T21:08:31.397Z,29.40
2022-11-28T21:10:58.338Z,29.60
2022-11-28T21:13:25.438Z,29.50
2022-11-28T21:15:53.584Z,29.70
2022-11-28T21:18:20.880Z,29.90
2022-11-28T21:20:48.449Z,30.10
2022-11-28T21:23:17.232Z,29.30
2022-11-28T21:25:44.587Z,29.70
2022-11-28T21:28:12.157Z,29.70
2022-11-28T21:30:47.931Z,29.90
2022-11-28T21:33:14.807Z,29.80
2022-11-28T21:35:41.858Z,29.80
2022-11-28T21:38:08.813Z,29.70
2022-11-28T21:40:35.701Z,29.80
2022-11-28T21:43:02.676Z,29.70
2022-11-28T21:45:30.916Z,29.80
2022-11-28T21:47:57.843Z,29.80
2022-11-28T21:50:24.816Z,29.60
2022-11-28T21:52:51.703Z,29.50
2022-11-28T21:55:18.756Z,29.10
2022-11-28T21:57:45.654Z,29.10
2022-11-28T22:00:25.875Z,29.20
2022-11-28T22:03:05.784Z,29.50
2022-11-28T22:05:35.069Z,29.40
2022-11-28T22:08:01.941Z,29.60
2022-11-28T22:10:28.989Z,29.70
2022-11-28T22:12:56.155Z,29.30
2022-11-28T22:15:23.024Z,29.30
2022-11-28T22:17:49.871Z,29.30
2022-11-28T22:20:16.852Z,29.20
2022-11-28T22:22:43.809Z,29.30
2022-11-28T22:25:10.852Z,29.40
2022-11-28T22:27:38.167Z,29.20
2022-11-28T22:30:06.082Z,29.30
2022-11-28T22:32:33.102Z,29.20
2022-11-28T22:35:00.110Z,28.80
2022-11-28T22:37:27.389Z,29.00
2022-11-28T22:39:54.406Z,29.30
2022-11-28T22:42:21.260Z,29.30
2022-11-28T22:44:48.173Z,29.50
2022-11-28T22:47:15.101Z,29.70
2022-11-28T22:49:42.003Z,29.50
2022-11-28T22:52:08.892Z,29.60
2022-11-28T22:54:35.796Z,29.50
2022-11-28T22:57:02.699Z,29.70
2022-11-28T22:59:33.631Z,29.70
2022-11-28T23:02:00.989Z,29.80
2022-11-28T23:04:27.951Z,29.60
2022-11-28T23:06:55.005Z,29.80
2022-11-28T23:09:21.970Z,29.80
2022-11-28T23:11:48.916Z,29.90
2022-11-28T23:14:15.905Z,29.70
2022-11-28T23:16:44.475Z,29.90
2022-11-28T23:19:14.727Z,29.80
2022-11-28T23:21:43.928Z,29.90
2022-11-28T23:24:16.575Z,30.00
2022-11-28T23:26:43.655Z,30.10
2022-11-28T23:29:10.781Z,30.30
2022-11-28T23:31:40.938Z,30.30
2022-11-28T23:34:08.330Z,30.30
2022-11-28T23:36:42.809Z,30.40
2022-11-28T23:39:19.251Z,30.10
2022-11-28T23:41:46.645Z,30.20
2022-11-28T23:44:17.649Z,30.30
2022-11-28T23:46:45.359Z,30.60
2022-11-28T23:49:13.109Z,30.80
2022-11-28T23:51:40.905Z,30.60
2022-11-28T23:54:09.613Z,30.50
2022-11-28T23:56:38.080Z,30.30
2022-11-28T23:59:06.612Z,30.40
